Terminal Aerodrome Forecast
Issued by NWS

Home | Current Version | Previous Version | Text Only | Print | Product List | Glossary On
Versions: 1 2 3 4 5 6 7 8 9 10 11 12 13 14 15 16 17 18 19
000
FTUS43 KIND 231217 AAA
TAFBMG
TAF AMD
KBMG 231217Z 2312/2412 00000KT 3SM BR SCT002
      TEMPO 2312/2313 1/4SM FG VV002
     FM231400 VRB03KT P6SM SCT040
     FM231800 19004KT P6SM BKN040 BKN250
     FM240100 13003KT P6SM SCT200
      AMD LTD TO CLD VIS AND WIND TIL 231300=

USA.gov is the U.S. government's official web portal to all federal, state and local government web resources and services.